Westward Ho — XPXS — position and weather

sailwx.info

Track history (hours):
 
Tides and Currents Weather Stations Pressure Air Temp Water Temp Dewpoint Dewpoint Depression Visibility Wind Speed Wind Dir Waves Ship Positions

Westward Ho

Last reported at 2015-May-24 13:08 UTC. Time now 2015-May-24 19:23 UTC.
Position N 58°34' W 006°09'.

Length 23 m; draft 3.4 m.

Type: . MMSI: 231374000.

Date/timePositionNaut miles runAvg speedWind from/ knotsBaromVisibWave heightAir tempDewpointWater temp
2015-May-24 13:08N 58°34' W 006°09'4 7.8
2015-May-24 12:33N 58°29' W 006°08'8 8.1
2015-May-24 11:33N 58°21' W 006°06'9 8.8
2015-May-24 10:33N 58°13' W 006°09'7 7.0
2015-May-24 09:33N 58°11' W 006°22'2 2.0
2015-May-24 08:32N 58°13' W 006°23'0 0.0
2015-May-24 07:31N 58°13' W 006°23'0 0.0
2015-May-24 05:32N 58°13' W 006°23'0 0.0
2015-May-24 03:12N 58°13' W 006°23'0 0.0
2015-May-24 02:33N 58°13' W 006°23'0 0.0
2015-May-24 01:33N 58°13' W 006°23'0 0.0
2015-May-24 00:33N 58°13' W 006°23'0 0.0
2015-May-23 23:13N 58°13' W 006°23'0 0.0
2015-May-23 22:33N 58°13' W 006°23'0 0.0
2015-May-23 21:33N 58°13' W 006°23'0 0.0
2015-May-23 20:32N 58°13' W 006°23'0 0.0
2015-May-23 19:33N 58°13' W 006°23'0 0.0
2015-May-23 18:33N 58°13' W 006°23'0 0.0
2015-May-23 17:29N 58°13' W 006°23'0 0.0
2015-May-23 16:20N 58°13' W 006°23'0 0.0
2015-May-23 15:34N 58°13' W 006°23'0 0.0
2015-May-23 14:33N 58°13' W 006°23'0 0.0
2015-May-23 13:33N 58°13' W 006°23'0 0.0
2015-May-23 12:33N 58°13' W 006°23'0 0.0
2015-May-23 11:34N 58°13' W 006°23'0 0.0
2015-May-23 10:33N 58°13' W 006°23'0 0.0
2015-May-23 09:34N 58°13' W 006°23'0 0.0
2015-May-23 08:32N 58°13' W 006°23'0 0.0
2015-May-23 07:33N 58°13' W 006°23'0 0.0
2015-May-23 06:33N 58°13' W 006°23'0 0.0
2015-May-23 05:33N 58°13' W 006°23'0 0.0
2015-May-23 04:33N 58°13' W 006°23'0 0.0
2015-May-23 03:33N 58°13' W 006°23'0 0.0
2015-May-23 02:33N 58°13' W 006°23'0 0.0
2015-May-23 01:33N 58°13' W 006°23'0 0.0
2015-May-23 00:33N 58°13' W 006°23'0 0.0
2015-May-22 23:33N 58°13' W 006°23'0 0.0
2015-May-22 22:33N 58°13' W 006°23'0 0.0
2015-May-22 21:33N 58°13' W 006°23'0 0.0
2015-May-22 20:33N 58°13' W 006°23'0 0.0
2015-May-22 19:33N 58°13' W 006°23'0 0.0
2015-May-22 18:34N 58°13' W 006°23'0 0.0
2015-May-22 17:33N 58°13' W 006°23'2 1.8
2015-May-22 16:34N 58°11' W 006°21'5 4.5
2015-May-22 15:33N 58°10' W 006°13'9 8.8
2015-May-22 14:33N 58°17' W 006°03'9 8.6
2015-May-22 13:33N 58°26' W 006°02'8 7.7
2015-May-22 12:33N 58°34' W 006°03'193 8.3
2015-May-21 13:20N 61°46' W 006°35'  
Track history (hours):
 
Tides and Currents Weather Stations Pressure Air Temp Water Temp Dewpoint Dewpoint Depression Visibility Wind Speed Wind Dir Waves Ship Positions

Westward Ho

Last reported at 2015-May-24 13:08 UTC. Time now 2015-May-24 19:23 UTC.
Position N 58°34' W 006°09'.

Length 23 m; draft 3.4 m.

Type: . MMSI: 231374000.

Date/timePositionNaut miles runAvg speedWind from/ knotsBaromVisibWave heightAir tempDewpointWater temp
2015-May-24 13:08N 58°34' W 006°09'4 7.8
2015-May-24 12:33N 58°29' W 006°08'8 8.1
2015-May-24 11:33N 58°21' W 006°06'9 8.8
2015-May-24 10:33N 58°13' W 006°09'7 7.0
2015-May-24 09:33N 58°11' W 006°22'2 2.0
2015-May-24 08:32N 58°13' W 006°23'0 0.0
2015-May-24 07:31N 58°13' W 006°23'0 0.0
2015-May-24 05:32N 58°13' W 006°23'0 0.0
2015-May-24 03:12N 58°13' W 006°23'0 0.0
2015-May-24 02:33N 58°13' W 006°23'0 0.0
2015-May-24 01:33N 58°13' W 006°23'0 0.0
2015-May-24 00:33N 58°13' W 006°23'0 0.0
2015-May-23 23:13N 58°13' W 006°23'0 0.0
2015-May-23 22:33N 58°13' W 006°23'0 0.0
2015-May-23 21:33N 58°13' W 006°23'0 0.0
2015-May-23 20:32N 58°13' W 006°23'0 0.0
2015-May-23 19:33N 58°13' W 006°23'0 0.0
2015-May-23 18:33N 58°13' W 006°23'0 0.0
2015-May-23 17:29N 58°13' W 006°23'0 0.0
2015-May-23 16:20N 58°13' W 006°23'0 0.0
2015-May-23 15:34N 58°13' W 006°23'0 0.0
2015-May-23 14:33N 58°13' W 006°23'0 0.0
2015-May-23 13:33N 58°13' W 006°23'0 0.0
2015-May-23 12:33N 58°13' W 006°23'0 0.0
2015-May-23 11:34N 58°13' W 006°23'0 0.0
2015-May-23 10:33N 58°13' W 006°23'0 0.0
2015-May-23 09:34N 58°13' W 006°23'0 0.0
2015-May-23 08:32N 58°13' W 006°23'0 0.0
2015-May-23 07:33N 58°13' W 006°23'0 0.0
2015-May-23 06:33N 58°13' W 006°23'0 0.0
2015-May-23 05:33N 58°13' W 006°23'0 0.0
2015-May-23 04:33N 58°13' W 006°23'0 0.0
2015-May-23 03:33N 58°13' W 006°23'0 0.0
2015-May-23 02:33N 58°13' W 006°23'0 0.0
2015-May-23 01:33N 58°13' W 006°23'0 0.0
2015-May-23 00:33N 58°13' W 006°23'0 0.0
2015-May-22 23:33N 58°13' W 006°23'0 0.0
2015-May-22 22:33N 58°13' W 006°23'0 0.0
2015-May-22 21:33N 58°13' W 006°23'0 0.0
2015-May-22 20:33N 58°13' W 006°23'0 0.0
2015-May-22 19:33N 58°13' W 006°23'0 0.0
2015-May-22 18:34N 58°13' W 006°23'0 0.0
2015-May-22 17:33N 58°13' W 006°23'2 1.8
2015-May-22 16:34N 58°11' W 006°21'5 4.5
2015-May-22 15:33N 58°10' W 006°13'9 8.8
2015-May-22 14:33N 58°17' W 006°03'9 8.6
2015-May-22 13:33N 58°26' W 006°02'8 7.7
2015-May-22 12:33N 58°34' W 006°03'193 8.3
2015-May-21 13:20N 61°46' W 006°35'  

Dump ship's entire track history